createdAt,value
2018-10-11T00:01:01.764Z,95297.00
2018-10-11T00:03:31.750Z,95297.00
2018-10-11T00:06:01.645Z,95306.00
2018-10-11T00:08:31.878Z,95323.00
2018-10-11T00:11:01.827Z,95316.00
2018-10-11T00:13:31.861Z,95314.00
2018-10-11T00:16:01.723Z,95317.00
2018-10-11T00:18:31.955Z,95311.00
2018-10-11T00:21:01.862Z,95309.00
2018-10-11T00:23:31.923Z,95309.00
2018-10-11T00:26:01.855Z,95313.00
2018-10-11T00:28:31.986Z,95305.00
2018-10-11T00:31:01.994Z,95311.00
2018-10-11T00:33:31.951Z,95305.00
2018-10-11T00:36:02.027Z,95325.00
2018-10-11T00:38:32.034Z,95305.00
2018-10-11T00:41:01.938Z,95306.00
2018-10-11T00:43:32.122Z,95309.00
2018-10-11T00:46:01.982Z,95305.00
2018-10-11T00:48:32.030Z,95300.00
2018-10-11T00:51:02.022Z,95302.00
2018-10-11T00:53:32.021Z,95311.00
2018-10-11T00:56:02.111Z,95314.00
2018-10-11T00:58:31.993Z,95300.00
2018-10-11T01:01:02.038Z,95300.00
2018-10-11T01:03:32.115Z,95295.00
2018-10-11T01:06:02.189Z,95284.00
2018-10-11T01:08:32.210Z,95283.00
2018-10-11T01:11:02.228Z,95287.00
2018-10-11T01:13:32.206Z,95287.00
2018-10-11T01:16:02.233Z,95288.00
2018-10-11T01:18:31.769Z,95278.00
2018-10-11T01:21:02.109Z,95294.00
2018-10-11T01:23:32.314Z,95293.00
2018-10-11T01:26:02.266Z,95288.00
2018-10-11T01:28:32.358Z,95293.00
2018-10-11T01:31:07.722Z,95282.00
2018-10-11T01:33:36.949Z,95276.00
2018-10-11T01:36:06.221Z,95282.00
2018-10-11T01:38:35.530Z,95282.00
2018-10-11T01:41:04.725Z,95279.00
2018-10-11T01:43:33.997Z,95285.00
2018-10-11T01:46:03.182Z,95282.00
2018-10-11T01:48:32.414Z,95270.00
2018-10-11T01:51:02.485Z,95263.00
2018-10-11T01:53:32.553Z,95266.00
2018-10-11T01:56:02.579Z,95259.00
2018-10-11T01:58:32.512Z,95270.00
2018-10-11T02:01:02.616Z,95258.00
2018-10-11T02:03:32.675Z,95259.00
2018-10-11T02:06:02.635Z,95251.00
2018-10-11T02:08:32.686Z,95263.00
2018-10-11T02:11:02.734Z,95247.00
2018-10-11T02:13:32.690Z,95255.00
2018-10-11T02:16:02.705Z,95259.00
2018-10-11T02:18:32.861Z,95261.00
2018-10-11T02:21:02.802Z,95259.00
2018-10-11T02:23:32.730Z,95255.00
2018-10-11T02:26:02.810Z,95258.00
2018-10-11T02:28:32.886Z,95257.00
2018-10-11T02:31:02.775Z,95255.00
2018-10-11T02:33:32.765Z,95242.00
2018-10-11T02:36:02.927Z,95251.00
2018-10-11T02:38:32.861Z,95259.00
2018-10-11T02:41:02.985Z,95260.00
2018-10-11T02:43:32.962Z,95246.00
2018-10-11T02:46:02.973Z,95247.00
2018-10-11T02:48:32.955Z,95249.00
2018-10-11T02:51:03.069Z,95250.00
2018-10-11T02:53:32.857Z,95243.00
2018-10-11T02:56:03.413Z,95234.00
2018-10-11T02:58:49.937Z,95229.00
2018-10-11T03:01:19.113Z,95232.00
2018-10-11T03:03:48.214Z,95235.00
2018-10-11T03:06:17.327Z,95235.00
2018-10-11T03:08:46.476Z,95240.00
2018-10-11T03:11:15.600Z,95235.00
2018-10-11T03:13:44.814Z,95233.00
2018-10-11T03:16:16.248Z,95225.00
2018-10-11T03:18:45.462Z,95227.00
2018-10-11T03:21:14.726Z,95225.00
2018-10-11T03:23:44.030Z,95232.00
2018-10-11T03:26:13.350Z,95226.00
2018-10-11T03:28:42.544Z,95217.00
2018-10-11T03:31:11.711Z,95225.00
2018-10-11T03:33:47.677Z,95228.00
2018-10-11T03:36:16.945Z,95227.00
2018-10-11T03:38:46.220Z,95241.00
2018-10-11T03:41:15.497Z,95227.00
2018-10-11T03:43:44.755Z,95241.00
2018-10-11T03:46:14.033Z,95246.00
2018-10-11T03:48:43.102Z,95245.00
2018-10-11T03:51:12.582Z,95246.00
2018-10-11T03:53:41.834Z,95251.00
2018-10-11T03:56:11.021Z,95244.00
2018-10-11T03:58:40.295Z,95241.00
2018-10-11T04:01:09.498Z,95234.00
2018-10-11T04:03:38.693Z,95246.00
2018-10-11T04:06:08.111Z,95236.00
2018-10-11T04:08:37.331Z,95242.00
2018-10-11T04:11:06.551Z,95231.00
2018-10-11T04:13:35.686Z,95240.00
2018-10-11T04:16:04.922Z,95227.00
2018-10-11T04:18:34.170Z,95234.00
2018-10-11T04:21:03.675Z,95252.00
2018-10-11T04:23:33.790Z,95254.00
2018-10-11T04:26:03.795Z,95241.00
2018-10-11T04:28:34.596Z,95247.00
2018-10-11T04:31:03.814Z,95252.00
2018-10-11T04:33:33.771Z,95254.00
2018-10-11T04:36:03.857Z,95243.00
2018-10-11T04:38:33.844Z,95254.00
2018-10-11T04:41:03.936Z,95250.00
2018-10-11T04:43:33.979Z,95266.00
2018-10-11T04:46:03.703Z,95271.00
2018-10-11T04:48:34.026Z,95262.00
2018-10-11T04:51:03.923Z,95269.00
2018-10-11T04:53:34.209Z,95263.00
2018-10-11T04:56:04.117Z,95271.00
2018-10-11T04:58:34.007Z,95269.00
2018-10-11T05:01:04.129Z,95263.00
2018-10-11T05:03:34.085Z,95263.00
2018-10-11T05:06:04.101Z,95269.00
2018-10-11T05:08:34.059Z,95276.00
2018-10-11T05:11:03.999Z,95280.00
2018-10-11T05:13:42.687Z,95280.00
2018-10-11T05:16:11.877Z,95284.00
2018-10-11T05:18:43.272Z,95287.00
2018-10-11T05:21:12.490Z,95282.00
2018-10-11T05:23:43.392Z,95290.00
2018-10-11T05:26:13.729Z,95285.00
2018-10-11T05:28:43.089Z,95283.00
2018-10-11T05:31:12.387Z,95300.00
2018-10-11T05:33:42.549Z,95303.00
2018-10-11T05:36:12.862Z,95299.00
2018-10-11T05:38:42.416Z,95303.00
2018-10-11T05:41:12.011Z,95294.00
2018-10-11T05:43:41.186Z,95294.00
2018-10-11T05:46:22.217Z,95296.00
2018-10-11T05:48:51.676Z,95285.00
2018-10-11T05:51:21.468Z,95286.00
2018-10-11T05:53:52.119Z,95292.00
2018-10-11T05:56:22.107Z,95290.00
2018-10-11T05:58:51.625Z,95292.00
2018-10-11T06:01:20.845Z,95289.00
2018-10-11T06:03:49.948Z,95292.00
2018-10-11T06:06:19.031Z,95288.00
2018-10-11T06:08:48.126Z,95280.00
2018-10-11T06:11:17.733Z,95288.00
2018-10-11T06:13:48.458Z,95285.00
2018-10-11T06:16:17.611Z,95290.00
2018-10-11T06:18:46.711Z,95290.00
2018-10-11T06:21:16.022Z,95289.00
2018-10-11T06:23:45.118Z,95291.00
2018-10-11T06:26:14.811Z,95292.00
2018-10-11T06:28:44.274Z,95297.00
2018-10-11T06:31:13.331Z,95305.00
2018-10-11T06:33:43.435Z,95316.00
2018-10-11T06:36:12.742Z,95309.00
2018-10-11T06:38:41.745Z,95305.00
2018-10-11T06:41:10.793Z,95303.00
2018-10-11T06:43:40.557Z,95307.00
2018-10-11T06:46:09.746Z,95305.00
2018-10-11T06:48:39.070Z,95304.00
2018-10-11T06:51:08.159Z,95311.00
2018-10-11T06:53:37.234Z,95312.00
2018-10-11T06:56:06.726Z,95310.00
2018-10-11T06:58:36.067Z,95319.00
2018-10-11T07:01:05.250Z,95324.00
2018-10-11T07:03:35.263Z,95310.00
2018-10-11T07:06:05.368Z,95305.00
2018-10-11T07:08:35.209Z,95302.00
2018-10-11T07:11:05.394Z,95300.00
2018-10-11T07:13:35.295Z,95306.00
2018-10-11T07:16:05.634Z,95319.00
2018-10-11T07:18:35.445Z,95306.00
2018-10-11T07:21:05.553Z,95313.00
2018-10-11T07:23:35.414Z,95312.00
2018-10-11T07:26:05.605Z,95321.00
2018-10-11T07:28:35.567Z,95308.00
2018-10-11T07:31:05.590Z,95328.00
2018-10-11T07:33:35.686Z,95318.00
2018-10-11T07:36:05.764Z,95327.00
2018-10-11T07:38:35.694Z,95321.00
2018-10-11T07:41:05.782Z,95324.00
2018-10-11T07:43:35.606Z,95321.00
2018-10-11T07:46:05.874Z,95332.00
2018-10-11T07:48:35.756Z,95331.00
2018-10-11T07:51:05.798Z,95330.00
2018-10-11T07:53:35.912Z,95323.00
2018-10-11T07:56:05.878Z,95323.00
2018-10-11T07:58:35.850Z,95324.00
2018-10-11T08:01:06.108Z,95332.00
2018-10-11T08:03:35.984Z,95335.00
2018-10-11T08:06:05.940Z,95325.00
2018-10-11T08:08:36.052Z,95322.00
2018-10-11T08:11:06.280Z,95322.00
2018-10-11T08:13:36.092Z,95322.00
2018-10-11T08:16:06.630Z,95319.00
2018-10-11T08:18:36.155Z,95324.00
2018-10-11T08:21:06.158Z,95325.00
2018-10-11T08:23:36.326Z,95329.00
2018-10-11T08:26:06.940Z,95325.00
2018-10-11T08:28:36.236Z,95331.00
2018-10-11T08:31:06.505Z,95328.00
2018-10-11T08:33:36.355Z,95327.00
2018-10-11T08:36:06.255Z,95334.00
2018-10-11T08:38:36.324Z,95327.00
2018-10-11T08:41:06.564Z,95321.00
2018-10-11T08:43:36.358Z,95320.00
2018-10-11T08:46:06.594Z,95320.00
2018-10-11T08:48:36.458Z,95314.00
2018-10-11T08:51:06.431Z,95317.00
2018-10-11T08:53:36.541Z,95314.00
2018-10-11T08:56:06.657Z,95325.00
2018-10-11T08:58:36.646Z,95313.00
2018-10-11T09:01:06.602Z,95316.00
2018-10-11T09:03:36.623Z,95310.00
2018-10-11T09:06:06.549Z,95314.00
2018-10-11T09:08:36.494Z,95322.00
2018-10-11T09:11:07.016Z,95323.00
2018-10-11T09:13:36.722Z,95311.00
2018-10-11T09:16:06.763Z,95311.00
2018-10-11T09:18:36.782Z,95319.00
2018-10-11T09:21:07.263Z,95316.00
2018-10-11T09:23:36.815Z,95307.00
2018-10-11T09:26:06.907Z,95314.00
2018-10-11T09:28:36.861Z,95311.00
2018-10-11T09:31:07.133Z,95316.00
2018-10-11T09:33:36.952Z,95306.00
2018-10-11T09:36:06.970Z,95308.00
2018-10-11T09:38:37.082Z,95312.00
2018-10-11T09:41:07.253Z,95316.00
2018-10-11T09:43:37.113Z,95318.00
2018-10-11T09:46:07.097Z,95311.00
2018-10-11T09:48:37.207Z,95309.00
2018-10-11T09:51:08.073Z,95306.00
2018-10-11T09:53:37.264Z,95306.00
2018-10-11T09:56:07.350Z,95307.00
2018-10-11T09:58:37.169Z,95320.00
2018-10-11T10:01:12.537Z,95308.00
2018-10-11T10:03:41.681Z,95307.00
2018-10-11T10:06:10.922Z,95316.00
2018-10-11T10:08:40.058Z,95310.00
2018-10-11T10:11:09.247Z,95321.00
2018-10-11T10:13:38.456Z,95319.00
2018-10-11T10:16:07.688Z,95328.00
2018-10-11T10:18:37.527Z,95317.00
2018-10-11T10:21:07.567Z,95323.00
2018-10-11T10:23:37.601Z,95318.00
2018-10-11T10:26:07.827Z,95313.00
2018-10-11T10:28:37.702Z,95316.00
2018-10-11T10:31:07.718Z,95308.00
2018-10-11T10:33:37.686Z,95314.00
2018-10-11T10:36:07.796Z,95306.00
2018-10-11T10:38:37.722Z,95310.00
2018-10-11T10:41:07.805Z,95308.00
2018-10-11T10:43:37.810Z,95309.00
2018-10-11T10:46:07.923Z,95302.00
2018-10-11T10:48:37.941Z,95310.00
2018-10-11T10:51:07.953Z,95318.00
2018-10-11T10:53:37.894Z,95312.00
2018-10-11T10:56:08.018Z,95311.00
2018-10-11T10:58:37.986Z,95311.00
2018-10-11T11:01:08.444Z,95308.00
2018-10-11T11:03:38.150Z,95313.00
2018-10-11T11:06:08.274Z,95312.00
2018-10-11T11:08:38.089Z,95303.00
2018-10-11T11:11:08.529Z,95313.00
2018-10-11T11:13:38.502Z,95312.00
2018-10-11T11:16:08.665Z,95305.00
2018-10-11T11:18:38.275Z,95298.00
2018-10-11T11:21:08.974Z,95294.00
2018-10-11T11:23:38.337Z,95300.00
2018-10-11T11:26:08.283Z,95296.00
2018-10-11T11:28:38.435Z,95292.00
2018-10-11T11:31:08.580Z,95289.00
2018-10-11T11:33:38.493Z,95293.00
2018-10-11T11:36:08.610Z,95288.00
2018-10-11T11:38:38.611Z,95292.00
2018-10-11T11:41:08.511Z,95291.00
2018-10-11T11:43:38.718Z,95293.00
2018-10-11T11:46:08.798Z,95296.00
2018-10-11T11:48:38.783Z,95302.00
2018-10-11T11:51:09.915Z,95300.00
2018-10-11T11:53:40.058Z,95291.00
2018-10-11T11:56:09.363Z,95296.00
2018-10-11T11:58:39.378Z,95292.00
2018-10-11T12:01:09.942Z,95287.00
2018-10-11T12:03:39.726Z,95292.00
2018-10-11T12:06:09.642Z,95283.00
2018-10-11T12:08:39.906Z,95285.00
2018-10-11T12:11:09.238Z,95282.00
2018-10-11T12:13:38.985Z,95282.00
2018-10-11T12:16:09.106Z,95278.00
2018-10-11T12:18:39.169Z,95286.00
2018-10-11T12:21:09.208Z,95281.00
2018-10-11T12:23:39.310Z,95290.00
2018-10-11T12:26:09.191Z,95285.00
2018-10-11T12:28:39.398Z,95294.00
2018-10-11T12:31:09.460Z,95290.00
2018-10-11T12:33:39.406Z,95295.00
2018-10-11T12:36:09.503Z,95295.00
2018-10-11T12:38:39.584Z,95292.00
2018-10-11T12:41:09.511Z,95296.00
2018-10-11T12:43:39.552Z,95291.00
2018-10-11T12:46:09.628Z,95290.00
2018-10-11T12:48:39.607Z,95286.00
2018-10-11T12:51:09.772Z,95287.00
2018-10-11T12:53:43.355Z,95283.00
2018-10-11T12:56:09.705Z,95280.00
2018-10-11T12:58:39.783Z,95284.00
2018-10-11T13:01:09.879Z,95280.00
2018-10-11T13:03:39.821Z,95281.00
2018-10-11T13:06:09.935Z,95281.00
2018-10-11T13:08:39.953Z,95289.00
2018-10-11T13:11:09.911Z,95287.00
2018-10-11T13:13:42.868Z,95286.00
2018-10-11T13:16:10.094Z,95280.00
2018-10-11T13:18:40.082Z,95281.00
2018-10-11T13:21:10.228Z,95269.00
2018-10-11T13:23:40.238Z,95280.00
2018-10-11T13:26:10.094Z,95276.00
2018-10-11T13:28:40.216Z,95283.00
2018-10-11T13:31:10.372Z,95279.00
2018-10-11T13:33:40.443Z,95290.00
2018-10-11T13:36:10.489Z,95280.00
2018-10-11T13:38:40.455Z,95279.00
2018-10-11T13:41:10.915Z,95281.00
2018-10-11T13:43:40.436Z,95284.00
2018-10-11T13:46:10.594Z,95282.00
2018-10-11T13:48:40.529Z,95281.00
2018-10-11T13:51:10.523Z,95286.00
2018-10-11T13:53:40.508Z,95281.00
2018-10-11T13:56:10.486Z,95285.00
2018-10-11T13:58:40.782Z,95283.00
2018-10-11T14:01:10.595Z,95285.00
2018-10-11T14:03:40.625Z,95288.00
2018-10-11T14:06:10.655Z,95288.00
2018-10-11T14:08:40.688Z,95285.00
2018-10-11T14:11:10.891Z,95282.00
2018-10-11T14:13:40.797Z,95285.00
2018-10-11T14:16:10.767Z,95286.00
2018-10-11T14:18:40.880Z,95293.00
2018-10-11T14:21:10.801Z,95293.00
2018-10-11T14:23:41.016Z,95291.00
2018-10-11T14:26:10.950Z,95282.00
2018-10-11T14:28:40.860Z,95294.00
2018-10-11T14:31:11.017Z,95278.00
2018-10-11T14:33:40.060Z,95285.00
2018-10-11T14:36:09.330Z,95287.00
2018-10-11T14:38:38.365Z,95292.00
2018-10-11T14:41:07.757Z,95291.00
2018-10-11T14:43:36.938Z,95278.00
2018-10-11T14:46:06.306Z,95287.00
2018-10-11T14:48:35.540Z,95291.00
2018-10-11T14:51:04.804Z,95285.00
2018-10-11T14:53:34.399Z,95284.00
2018-10-11T14:56:03.603Z,95288.00
2018-10-11T14:58:32.794Z,95287.00
2018-10-11T15:01:02.194Z,95287.00
2018-10-11T15:03:31.334Z,95294.00
2018-10-11T15:06:00.517Z,95289.00
2018-10-11T15:08:29.702Z,95291.00
2018-10-11T15:10:59.005Z,95293.00
2018-10-11T15:13:28.276Z,95293.00
2018-10-11T15:15:57.441Z,95294.00
2018-10-11T15:18:27.499Z,95290.00
2018-10-11T15:20:56.734Z,95300.00
2018-10-11T15:23:25.960Z,95296.00
2018-10-11T15:25:55.178Z,95299.00
2018-10-11T15:28:24.431Z,95304.00
2018-10-11T15:30:53.850Z,95313.00
2018-10-11T15:33:23.103Z,95307.00
2018-10-11T15:35:52.255Z,95314.00
2018-10-11T15:38:21.461Z,95314.00
2018-10-11T15:40:50.697Z,95307.00
2018-10-11T15:43:19.854Z,95316.00
2018-10-11T15:45:49.074Z,95305.00
2018-10-11T15:48:18.291Z,95305.00
2018-10-11T15:50:47.526Z,95311.00
2018-10-11T15:53:16.787Z,95310.00
2018-10-11T15:55:46.022Z,95311.00
2018-10-11T15:58:15.212Z,95311.00
2018-10-11T16:00:44.446Z,95314.00
2018-10-11T16:03:13.590Z,95319.00
2018-10-11T16:05:42.853Z,95320.00
2018-10-11T16:08:11.918Z,95317.00
2018-10-11T16:10:42.050Z,95330.00
2018-10-11T16:13:11.971Z,95326.00
2018-10-11T16:15:42.054Z,95330.00
2018-10-11T16:18:12.076Z,95332.00
2018-10-11T16:20:42.156Z,95330.00
2018-10-11T16:23:12.120Z,95328.00
2018-10-11T16:25:42.136Z,95330.00
2018-10-11T16:28:12.149Z,95330.00
2018-10-11T16:30:42.159Z,95326.00
2018-10-11T16:33:12.313Z,95342.00
2018-10-11T16:35:42.251Z,95335.00
2018-10-11T16:38:12.258Z,95346.00
2018-10-11T16:40:42.303Z,95351.00
2018-10-11T16:43:12.328Z,95348.00
2018-10-11T16:45:42.790Z,95363.00
2018-10-11T16:53:24.385Z,95361.00
2018-10-11T16:55:53.953Z,95370.00
2018-10-11T16:58:23.619Z,95368.00
2018-10-11T17:00:53.112Z,95358.00
2018-10-11T17:03:23.999Z,95362.00
2018-10-11T17:05:53.771Z,95366.00
2018-10-11T17:08:23.424Z,95369.00
2018-10-11T17:10:52.879Z,95369.00
2018-10-11T17:13:22.205Z,95375.00
2018-10-11T17:15:51.510Z,95383.00
2018-10-11T17:18:20.694Z,95383.00
2018-10-11T17:20:50.060Z,95388.00
2018-10-11T17:23:19.310Z,95388.00
2018-10-11T17:25:48.753Z,95383.00
2018-10-11T17:28:18.031Z,95379.00
2018-10-11T17:30:47.410Z,95389.00
2018-10-11T17:33:16.573Z,95380.00
2018-10-11T17:35:45.833Z,95382.00
2018-10-11T17:38:15.192Z,95389.00
2018-10-11T17:40:44.567Z,95386.00
2018-10-11T17:43:13.870Z,95379.00
2018-10-11T17:45:43.016Z,95382.00
2018-10-11T17:48:13.051Z,95382.00
2018-10-11T17:50:43.158Z,95387.00
2018-10-11T17:53:13.063Z,95388.00
2018-10-11T17:55:43.223Z,95384.00
2018-10-11T17:58:13.385Z,95388.00
2018-10-11T18:00:43.357Z,95381.00
2018-10-11T18:03:13.315Z,95386.00
2018-10-11T18:05:43.334Z,95384.00
2018-10-11T18:08:13.517Z,95392.00
2018-10-11T18:10:43.594Z,95390.00
2018-10-11T18:13:13.461Z,95394.00
2018-10-11T18:15:43.582Z,95397.00
2018-10-11T18:18:13.689Z,95391.00
2018-10-11T18:20:43.514Z,95398.00
2018-10-11T18:23:13.624Z,95406.00
2018-10-11T18:25:43.507Z,95405.00
2018-10-11T18:28:13.518Z,95416.00
2018-10-11T18:30:43.542Z,95403.00
2018-10-11T18:33:13.681Z,95418.00
2018-10-11T18:35:43.716Z,95409.00
2018-10-11T18:38:13.743Z,95416.00
2018-10-11T18:40:43.565Z,95421.00
2018-10-11T18:43:13.727Z,95422.00
2018-10-11T18:45:43.808Z,95424.00
2018-10-11T18:48:13.880Z,95424.00
2018-10-11T18:50:43.934Z,95432.00
2018-10-11T18:53:13.986Z,95432.00
2018-10-11T18:55:43.918Z,95427.00
2018-10-11T18:58:14.023Z,95425.00
2018-10-11T19:00:44.000Z,95424.00
2018-10-11T19:03:13.952Z,95431.00
2018-10-11T19:05:44.277Z,95425.00
2018-10-11T19:08:14.003Z,95433.00
2018-10-11T19:10:44.100Z,95434.00
2018-10-11T19:13:14.124Z,95434.00
2018-10-11T19:15:44.242Z,95442.00
2018-10-11T19:18:14.222Z,95437.00
2018-10-11T19:20:44.265Z,95431.00
2018-10-11T19:23:14.243Z,95437.00
2018-10-11T19:25:44.377Z,95449.00
2018-10-11T19:28:14.220Z,95440.00
2018-10-11T19:30:44.174Z,95452.00
2018-10-11T19:33:14.438Z,95443.00
2018-10-11T19:35:44.305Z,95442.00
2018-10-11T19:38:14.317Z,95440.00
2018-10-11T19:40:44.425Z,95442.00
2018-10-11T19:43:14.403Z,95448.00
2018-10-11T19:45:44.533Z,95442.00
2018-10-11T19:48:14.447Z,95438.00
2018-10-11T19:50:44.537Z,95439.00
2018-10-11T19:53:14.521Z,95444.00
2018-10-11T19:55:44.488Z,95450.00
2018-10-11T19:58:15.119Z,95451.00
2018-10-11T20:00:44.820Z,95461.00
2018-10-11T20:03:15.003Z,95454.00
2018-10-11T20:05:44.887Z,95458.00
2018-10-11T20:08:15.057Z,95462.00
2018-10-11T20:10:44.955Z,95453.00
2018-10-11T20:13:15.084Z,95451.00
2018-10-11T20:15:45.610Z,95459.00
2018-10-11T20:18:14.950Z,95459.00
2018-10-11T20:20:45.031Z,95460.00
2018-10-11T20:23:15.254Z,95463.00
2018-10-11T20:25:45.055Z,95468.00
2018-10-11T20:28:14.994Z,95463.00
2018-10-11T20:30:45.130Z,95466.00
2018-10-11T20:33:15.083Z,95470.00
2018-10-11T20:35:45.162Z,95467.00
2018-10-11T20:38:15.118Z,95472.00
2018-10-11T20:40:45.183Z,95470.00
2018-10-11T20:43:15.316Z,95470.00
2018-10-11T20:45:45.282Z,95465.00
2018-10-11T20:48:15.337Z,95474.00
2018-10-11T20:50:45.354Z,95473.00
2018-10-11T20:53:17.443Z,95480.00
2018-10-11T20:55:46.672Z,95483.00
2018-10-11T20:58:15.846Z,95480.00
2018-10-11T21:00:45.426Z,95484.00
2018-10-11T21:03:15.558Z,95489.00
2018-10-11T21:05:45.699Z,95489.00
2018-10-11T21:08:15.681Z,95497.00
2018-10-11T21:10:45.640Z,95494.00
2018-10-11T21:13:15.703Z,95491.00
2018-10-11T21:15:45.679Z,95499.00
2018-10-11T21:18:15.714Z,95493.00
2018-10-11T21:20:45.651Z,95506.00
2018-10-11T21:23:15.666Z,95506.00
2018-10-11T21:25:45.897Z,95505.00
2018-10-11T21:28:16.000Z,95510.00
2018-10-11T21:30:45.862Z,95506.00
2018-10-11T21:33:15.943Z,95508.00
2018-10-11T21:35:45.965Z,95514.00
2018-10-11T21:38:15.946Z,95512.00
2018-10-11T21:40:45.898Z,95509.00
2018-10-11T21:43:16.098Z,95508.00
2018-10-11T21:45:46.126Z,95509.00
2018-10-11T21:48:16.071Z,95507.00
2018-10-11T21:50:46.099Z,95513.00
2018-10-11T21:53:16.225Z,95507.00
2018-10-11T21:55:46.214Z,95509.00
2018-10-11T21:58:16.213Z,95514.00
2018-10-11T22:00:51.579Z,95524.00
2018-10-11T22:03:20.750Z,95519.00
2018-10-11T22:05:49.850Z,95523.00
2018-10-11T22:08:19.046Z,95527.00
2018-10-11T22:10:48.219Z,95527.00
2018-10-11T22:13:17.442Z,95528.00
2018-10-11T22:15:46.602Z,95544.00
2018-10-11T22:18:16.630Z,95541.00
2018-10-11T22:20:46.696Z,95540.00
2018-10-11T22:23:16.610Z,95544.00
2018-10-11T22:25:46.647Z,95544.00
2018-10-11T22:28:16.607Z,95546.00
2018-10-11T22:30:46.701Z,95547.00
2018-10-11T22:33:16.719Z,95548.00
2018-10-11T22:35:46.917Z,95545.00
2018-10-11T22:38:16.772Z,95538.00
2018-10-11T22:40:46.774Z,95551.00
2018-10-11T22:43:16.891Z,95555.00
2018-10-11T22:45:46.754Z,95552.00
2018-10-11T22:48:16.758Z,95548.00
2018-10-11T22:50:46.926Z,95549.00
2018-10-11T22:53:17.065Z,95557.00
2018-10-11T22:55:47.006Z,95559.00
2018-10-11T22:58:17.140Z,95561.00
2018-10-11T23:00:47.214Z,95565.00
2018-10-11T23:03:17.131Z,95563.00
2018-10-11T23:05:47.187Z,95565.00
2018-10-11T23:08:17.225Z,95562.00
2018-10-11T23:10:47.250Z,95564.00
2018-10-11T23:13:17.317Z,95573.00
2018-10-11T23:15:47.388Z,95575.00
2018-10-11T23:18:17.375Z,95583.00
2018-10-11T23:20:47.450Z,95581.00
2018-10-11T23:23:17.382Z,95581.00
2018-10-11T23:25:47.491Z,95572.00
2018-10-11T23:28:17.521Z,95586.00
2018-10-11T23:30:47.594Z,95590.00
2018-10-11T23:33:17.741Z,95597.00
2018-10-11T23:35:47.647Z,95590.00
2018-10-11T23:38:17.678Z,95596.00
2018-10-11T23:40:47.654Z,95585.00
2018-10-11T23:43:17.648Z,95591.00
2018-10-11T23:45:47.730Z,95591.00
2018-10-11T23:48:17.746Z,95599.00
2018-10-11T23:50:47.906Z,95602.00
2018-10-11T23:53:17.899Z,95604.00
2018-10-11T23:55:47.958Z,95615.00
2018-10-11T23:58:17.915Z,95617.00
